Time;durP1;ratioP1;P1;durP2;ratioP2;P2;SDS_P1;SDS_P2;PMS_P1;PMS_P2;Temp;Humidity;BMP_temperature;BMP_pressure;BME280_temperature;BME280_humidity;BME280_pressure;Samples;Min_cycle;Max_cycle;Signal;HPM_P1;HPM_P2
2022/12/21 00:01:42;;;;;;;20.00;17.40;;;;;;;;;;5012881;28;20228;-47
2022/12/21 00:04:08;;;;;;;18.97;16.80;;;;;;;;;;5012014;28;20201;-47
2022/12/21 00:06:35;;;;;;;17.47;15.43;;;;;;;;;;5012651;28;20198;-48
2022/12/21 00:09:04;;;;;;;16.47;14.80;;;;;;;;;;5012592;28;20205;-48
2022/12/21 00:11:30;;;;;;;18.87;15.57;;;;;;;;;;5012517;28;20201;-49
2022/12/21 00:13:57;;;;;;;18.70;16.80;;;;;;;;;;5012440;28;20223;-48
2022/12/21 00:16:24;;;;;;;17.33;15.53;;;;;;;;;;5012457;28;20259;-48
2022/12/21 00:18:51;;;;;;;17.37;15.37;;;;;;;;;;5012370;28;20248;-48
2022/12/21 00:21:17;;;;;;;17.70;16.00;;;;;;;;;;5012501;28;20202;-48
2022/12/21 00:23:44;;;;;;;20.60;16.30;;;;;;;;;;5012303;28;20204;-49
2022/12/21 00:26:13;;;;;;;18.80;16.80;;;;;;;;;;5012532;28;20194;-49
2022/12/21 00:28:39;;;;;;;19.80;17.70;;;;;;;;;;5012106;28;20600;-48
2022/12/21 00:31:06;;;;;;;23.00;18.23;;;;;;;;;;5012312;28;20197;-48
2022/12/21 00:33:33;;;;;;;21.33;18.43;;;;;;;;;;5012099;28;20690;-49
2022/12/21 00:35:59;;;;;;;21.70;19.40;;;;;;;;;;5011952;28;20229;-48
2022/12/21 00:38:25;;;;;;;20.67;18.47;;;;;;;;;;5012138;28;20727;-48
2022/12/21 00:40:55;;;;;;;21.47;18.63;;;;;;;;;;5011595;28;20224;-48
2022/12/21 00:43:22;;;;;;;20.47;18.23;;;;;;;;;;5012090;28;20723;-48
2022/12/21 00:45:48;;;;;;;23.43;18.77;;;;;;;;;;5010156;28;20208;-48
2022/12/21 00:48:14;;;;;;;20.77;18.23;;;;;;;;;;5010552;28;20613;-49
2022/12/21 00:50:40;;;;;;;21.00;18.70;;;;;;;;;;5011652;28;20374;-48
2022/12/21 00:53:08;;;;;;;24.27;20.00;;;;;;;;;;5011804;28;20201;-48
2022/12/21 00:55:34;;;;;;;21.13;18.90;;;;;;;;;;5011796;28;20235;-48
2022/12/21 00:58:00;;;;;;;21.83;19.63;;;;;;;;;;5011707;28;20201;-48
2022/12/21 01:00:27;;;;;;;21.13;18.93;;;;;;;;;;5011837;28;20292;-48
2022/12/21 01:02:53;;;;;;;24.80;20.87;;;;;;;;;;5011852;28;20201;-48
2022/12/21 01:05:20;;;;;;;23.30;20.07;;;;;;;;;;5011879;28;20236;-47
2022/12/21 01:07:46;;;;;;;21.87;19.57;;;;;;;;;;5011763;28;20206;-48
2022/12/21 01:10:12;;;;;;;21.87;19.67;;;;;;;;;;5011714;28;20301;-47
2022/12/21 01:12:38;;;;;;;24.43;21.83;;;;;;;;;;5011787;28;20203;-47
2022/12/21 01:15:05;;;;;;;23.97;20.80;;;;;;;;;;5012476;28;20229;-47
2022/12/21 01:17:32;;;;;;;24.23;21.67;;;;;;;;;;5015743;28;20212;-48
2022/12/21 01:19:58;;;;;;;23.27;20.87;;;;;;;;;;5015493;28;20556;-48
2022/12/21 01:22:24;;;;;;;24.00;21.50;;;;;;;;;;5015696;28;20696;-48
2022/12/21 01:24:50;;;;;;;27.97;22.87;;;;;;;;;;5015501;28;20182;-47
2022/12/21 01:27:16;;;;;;;25.33;22.10;;;;;;;;;;5015528;28;20216;-48
2022/12/21 01:29:42;;;;;;;23.67;21.23;;;;;;;;;;5015419;28;20193;-48
2022/12/21 01:32:08;;;;;;;25.07;21.87;;;;;;;;;;5015623;28;20202;-48
2022/12/21 01:34:35;;;;;;;26.37;22.67;;;;;;;;;;5015221;28;20320;-49
2022/12/21 01:37:01;;;;;;;26.20;23.10;;;;;;;;;;5015416;28;20217;-48
2022/12/21 01:39:29;;;;;;;24.23;21.70;;;;;;;;;;5015140;28;20279;-48
2022/12/21 01:41:55;;;;;;;25.90;22.83;;;;;;;;;;5015116;28;20224;-48
2022/12/21 01:44:40;;;;;;;27.43;23.27;;;;;;;;;;5015166;28;20568;-48
2022/12/21 01:47:07;;;;;;;27.07;22.40;;;;;;;;;;5015130;28;20189;-48
2022/12/21 01:49:35;;;;;;;26.57;22.80;;;;;;;;;;5015142;28;20237;-48
2022/12/21 01:52:03;;;;;;;27.33;23.47;;;;;;;;;;5014912;28;20604;-48
2022/12/21 01:54:30;;;;;;;24.80;22.13;;;;;;;;;;5014873;28;20225;-48
2022/12/21 01:56:59;;;;;;;25.53;21.93;;;;;;;;;;5014792;28;20201;-48
2022/12/21 01:59:27;;;;;;;24.93;22.33;;;;;;;;;;5015038;28;20251;-48
2022/12/21 02:01:53;;;;;;;24.73;21.47;;;;;;;;;;5014926;28;20208;-47
2022/12/21 02:04:19;;;;;;;26.03;22.57;;;;;;;;;;5014784;28;20644;-47
2022/12/21 02:06:48;;;;;;;27.87;24.07;;;;;;;;;;5014638;28;20699;-47
2022/12/21 02:09:14;;;;;;;31.63;25.30;;;;;;;;;;5014675;28;20292;-47
2022/12/21 02:11:41;;;;;;;30.37;24.57;;;;;;;;;;5014642;28;20206;-47
2022/12/21 02:14:10;;;;;;;30.33;25.13;;;;;;;;;;5014511;28;20212;-47
2022/12/21 02:16:38;;;;;;;25.33;22.50;;;;;;;;;;5014640;28;20201;-47
2022/12/21 02:19:28;;;;;;;27.13;23.53;;;;;;;;;;5014428;28;20193;-47
2022/12/21 02:21:57;;;;;;;30.20;24.70;;;;;;;;;;4999435;28;20219;-47
2022/12/21 02:24:36;;;;;;;28.50;23.93;;;;;;;;;;5014586;28;20202;-47
2022/12/21 02:27:10;;;;;;;30.47;25.03;;;;;;;;;;5013751;28;20201;-48
2022/12/21 02:29:54;;;;;;;29.30;23.53;;;;;;;;;;5014421;28;20616;-52
2022/12/21 02:32:26;;;;;;;31.83;25.93;;;;;;;;;;5014358;28;20286;-46
2022/12/21 02:34:56;;;;;;;38.37;26.13;;;;;;;;;;5014068;28;20593;-48
2022/12/21 02:37:26;;;;;;;37.53;27.83;;;;;;;;;;5014260;28;20205;-47
2022/12/21 02:39:55;;;;;;;35.40;26.73;;;;;;;;;;5013938;28;20577;-47
2022/12/21 02:45:14;;;;;;;32.20;25.10;;;;;;;;;;5014299;28;20248;-47
2022/12/21 02:47:45;;;;;;;40.43;27.40;;;;;;;;;;5014256;28;20233;-47
2022/12/21 02:50:12;;;;;;;31.37;25.13;;;;;;;;;;5013869;28;20233;-47
2022/12/21 02:52:40;;;;;;;30.00;25.17;;;;;;;;;;5014012;28;20209;-47
2022/12/21 02:55:09;;;;;;;33.90;26.33;;;;;;;;;;5013737;28;20253;-47
2022/12/21 02:57:36;;;;;;;34.00;25.73;;;;;;;;;;5013734;28;20259;-47
2022/12/21 03:00:04;;;;;;;36.33;26.17;;;;;;;;;;5013693;28;20427;-47
2022/12/21 03:02:37;;;;;;;30.47;24.57;;;;;;;;;;5013746;28;20292;-47
2022/12/21 03:05:12;;;;;;;32.43;24.67;;;;;;;;;;5013592;28;20225;-46
2022/12/21 03:07:42;;;;;;;31.00;24.30;;;;;;;;;;5013667;28;20679;-47
2022/12/21 03:10:12;;;;;;;33.23;25.20;;;;;;;;;;5013571;28;20233;-46
2022/12/21 03:12:43;;;;;;;30.97;24.63;;;;;;;;;;5013584;28;20225;-47
2022/12/21 03:15:18;;;;;;;35.30;25.83;;;;;;;;;;5013427;28;20226;-47
2022/12/21 03:17:45;;;;;;;32.50;24.10;;;;;;;;;;5013389;28;20196;-47
2022/12/21 03:20:13;;;;;;;33.13;23.67;;;;;;;;;;5013365;28;20234;-47
2022/12/21 03:22:42;;;;;;;34.23;24.90;;;;;;;;;;5013423;28;20209;-47
2022/12/21 03:25:11;;;;;;;32.77;24.53;;;;;;;;;;5013232;28;20220;-48
2022/12/21 03:27:39;;;;;;;31.10;23.77;;;;;;;;;;5013228;28;20259;-47
2022/12/21 03:30:07;;;;;;;34.63;25.03;;;;;;;;;;5013104;28;20241;-48
2022/12/21 03:32:35;;;;;;;36.40;24.10;;;;;;;;;;5013183;28;20202;-47
2022/12/21 03:35:04;;;;;;;37.57;25.43;;;;;;;;;;5012798;28;20221;-47
2022/12/21 03:37:32;;;;;;;30.73;24.17;;;;;;;;;;5012242;28;20508;-48
2022/12/21 03:40:01;;;;;;;28.63;23.27;;;;;;;;;;5012721;28;20331;-47
2022/12/21 03:42:31;;;;;;;35.63;25.83;;;;;;;;;;5012934;28;20194;-47
2022/12/21 03:44:58;;;;;;;31.33;23.37;;;;;;;;;;5012800;28;20660;-48
2022/12/21 03:47:27;;;;;;;33.43;24.20;;;;;;;;;;5013040;28;20194;-47
2022/12/21 03:49:54;;;;;;;40.50;26.13;;;;;;;;;;5012859;28;20574;-48
2022/12/21 03:52:22;;;;;;;27.90;22.73;;;;;;;;;;5012898;28;20209;-48
2022/12/21 03:54:54;;;;;;;32.43;22.97;;;;;;;;;;5012689;28;20264;-48
2022/12/21 03:57:20;;;;;;;33.83;23.97;;;;;;;;;;5012765;28;20198;-48
2022/12/21 03:59:49;;;;;;;37.57;23.53;;;;;;;;;;5012599;28;20308;-47
2022/12/21 04:02:16;;;;;;;42.50;24.43;;;;;;;;;;5012511;28;20719;-48
2022/12/21 04:04:44;;;;;;;33.13;22.37;;;;;;;;;;5012547;28;20224;-48
2022/12/21 04:07:11;;;;;;;28.17;21.50;;;;;;;;;;5012849;28;20323;-48
2022/12/21 04:09:37;;;;;;;41.07;22.90;;;;;;;;;;5012593;28;20293;-47
2022/12/21 04:14:50;;;;;;;24.80;20.50;;;;;;;;;;5012658;28;20279;-51
2022/12/21 04:17:16;;;;;;;24.77;20.57;;;;;;;;;;5012398;28;20206;-47
2022/12/21 04:19:57;;;;;;;34.70;21.80;;;;;;;;;;5012253;28;20204;-48
2022/12/21 04:28:07;;;;;;;37.17;20.93;;;;;;;;;;5012275;28;20197;-47
2022/12/21 04:30:33;;;;;;;30.20;21.53;;;;;;;;;;5012317;28;20320;-47
2022/12/21 04:32:59;;;;;;;33.23;21.33;;;;;;;;;;5012046;28;20285;-47
2022/12/21 04:35:25;;;;;;;29.27;20.63;;;;;;;;;;5012156;28;20631;-47
2022/12/21 04:37:51;;;;;;;36.03;22.40;;;;;;;;;;5012041;28;20790;-47
2022/12/21 04:40:17;;;;;;;28.93;19.67;;;;;;;;;;5011875;28;20336;-47
2022/12/21 04:42:43;;;;;;;31.10;20.17;;;;;;;;;;5011955;28;20295;-48
2022/12/21 04:45:10;;;;;;;24.93;19.33;;;;;;;;;;5012275;28;20196;-48
2022/12/21 04:47:36;;;;;;;29.20;19.97;;;;;;;;;;5011911;28;20754;-47
2022/12/21 04:50:03;;;;;;;31.87;21.37;;;;;;;;;;5011900;28;20289;-48
2022/12/21 04:52:30;;;;;;;36.13;21.53;;;;;;;;;;5011989;28;20244;-49
2022/12/21 04:54:56;;;;;;;25.00;19.03;;;;;;;;;;5011784;28;20248;-48
2022/12/21 04:57:22;;;;;;;34.07;22.13;;;;;;;;;;5011897;28;20268;-48
2022/12/21 04:59:48;;;;;;;31.20;22.57;;;;;;;;;;5011929;28;20563;-48
2022/12/21 05:02:16;;;;;;;44.50;23.53;;;;;;;;;;5011676;28;20198;-48
2022/12/21 05:04:42;;;;;;;37.50;23.13;;;;;;;;;;5011814;28;20205;-48
2022/12/21 05:07:08;;;;;;;42.50;23.83;;;;;;;;;;5011815;28;20228;-48
2022/12/21 05:09:34;;;;;;;46.20;23.67;;;;;;;;;;5011699;28;20570;-47
2022/12/21 05:12:00;;;;;;;32.70;22.30;;;;;;;;;;5011600;28;20202;-48
2022/12/21 05:14:26;;;;;;;47.87;23.93;;;;;;;;;;5011740;28;20362;-48
2022/12/21 05:16:52;;;;;;;36.00;21.97;;;;;;;;;;5011873;28;20723;-48
2022/12/21 05:19:20;;;;;;;50.47;24.37;;;;;;;;;;5011764;28;20251;-47
2022/12/21 05:21:46;;;;;;;55.27;25.07;;;;;;;;;;5011640;28;20296;-48
2022/12/21 05:24:12;;;;;;;51.90;25.17;;;;;;;;;;5011642;28;20256;-47
2022/12/21 05:26:38;;;;;;;35.57;23.03;;;;;;;;;;5011729;28;20220;-47
2022/12/21 05:29:04;;;;;;;32.87;21.33;;;;;;;;;;5011562;28;20661;-48
2022/12/21 05:31:30;;;;;;;33.13;22.83;;;;;;;;;;5011570;28;20607;-48
2022/12/21 05:33:56;;;;;;;30.00;21.83;;;;;;;;;;5011272;28;20248;-47
2022/12/21 05:36:24;;;;;;;32.27;21.90;;;;;;;;;;5011531;28;20232;-48
2022/12/21 05:38:50;;;;;;;71.00;23.97;;;;;;;;;;5011327;28;20609;-48
2022/12/21 05:41:17;;;;;;;32.93;21.60;;;;;;;;;;5011383;28;20212;-48
2022/12/21 05:43:44;;;;;;;32.73;20.87;;;;;;;;;;5011459;28;20193;-47
2022/12/21 05:46:10;;;;;;;29.57;20.47;;;;;;;;;;5011378;28;20194;-48
2022/12/21 05:48:37;;;;;;;42.87;22.23;;;;;;;;;;5011532;28;20208;-48
2022/12/21 05:51:05;;;;;;;63.87;22.30;;;;;;;;;;5011326;28;20659;-48
2022/12/21 05:53:33;;;;;;;26.33;19.03;;;;;;;;;;5011393;28;20284;-49
2022/12/21 05:55:59;;;;;;;93.07;23.67;;;;;;;;;;5011135;28;20309;-48
2022/12/21 05:58:25;;;;;;;143.47;24.23;;;;;;;;;;5011439;28;20221;-48
2022/12/21 06:00:52;;;;;;;127.47;26.30;;;;;;;;;;5011811;28;20190;-48
2022/12/21 06:03:18;;;;;;;116.93;24.27;;;;;;;;;;5014801;28;20207;-48
2022/12/21 06:05:44;;;;;;;186.83;29.60;;;;;;;;;;5014858;28;20199;-48
2022/12/21 06:08:10;;;;;;;133.97;27.53;;;;;;;;;;5014726;28;20198;-48
2022/12/21 06:10:38;;;;;;;76.13;23.70;;;;;;;;;;5014709;28;20201;-48
2022/12/21 06:13:05;;;;;;;33.07;23.13;;;;;;;;;;5014473;28;20201;-48
2022/12/21 06:15:31;;;;;;;40.30;22.20;;;;;;;;;;5014426;28;20230;-48
2022/12/21 06:17:58;;;;;;;34.70;23.47;;;;;;;;;;5014178;28;20206;-48
2022/12/21 06:20:23;;;;;;;72.83;47.50;;;;;;;;;;5014615;28;20220;-48
2022/12/21 06:22:49;;;;;;;45.37;30.67;;;;;;;;;;5014449;28;20205;-48
2022/12/21 06:25:15;;;;;;;80.27;27.87;;;;;;;;;;5014237;28;20206;-48
2022/12/21 06:27:43;;;;;;;95.87;25.73;;;;;;;;;;5014234;28;20205;-49
2022/12/21 06:30:09;;;;;;;55.73;24.00;;;;;;;;;;5014319;28;20285;-48
2022/12/21 06:32:35;;;;;;;179.20;27.07;;;;;;;;;;5014502;28;20205;-48
2022/12/21 06:35:01;;;;;;;148.27;31.00;;;;;;;;;;5013870;28;20230;-48
2022/12/21 06:37:27;;;;;;;130.63;27.60;;;;;;;;;;5014069;28;20201;-49
2022/12/21 06:39:53;;;;;;;287.23;32.63;;;;;;;;;;5014032;28;20244;-48
2022/12/21 06:42:19;;;;;;;318.60;33.10;;;;;;;;;;5014078;28;20213;-48
2022/12/21 06:44:46;;;;;;;273.13;33.73;;;;;;;;;;5013974;28;20206;-48
2022/12/21 06:47:12;;;;;;;41.57;25.30;;;;;;;;;;5013881;28;20224;-48
2022/12/21 06:49:38;;;;;;;357.23;35.00;;;;;;;;;;5013966;28;20233;-48
2022/12/21 06:52:04;;;;;;;39.33;23.13;;;;;;;;;;5013785;28;20197;-48
2022/12/21 06:54:31;;;;;;;38.87;24.20;;;;;;;;;;5014117;28;20664;-48
2022/12/21 06:56:57;;;;;;;35.83;23.17;;;;;;;;;;5013679;28;20568;-48
2022/12/21 06:59:23;;;;;;;108.17;27.23;;;;;;;;;;5013810;28;20203;-49
2022/12/21 07:01:50;;;;;;;293.00;33.77;;;;;;;;;;5013650;28;20201;-48
2022/12/21 07:04:16;;;;;;;245.03;29.60;;;;;;;;;;5013518;28;20205;-48
2022/12/21 07:06:42;;;;;;;35.37;21.77;;;;;;;;;;5013499;28;20221;-48
2022/12/21 07:09:11;;;;;;;34.30;21.87;;;;;;;;;;5013583;28;20212;-48
2022/12/21 07:11:37;;;;;;;32.87;20.57;;;;;;;;;;5013563;28;20197;-49
2022/12/21 07:14:03;;;;;;;31.50;21.53;;;;;;;;;;5013214;28;20197;-48
2022/12/21 07:16:29;;;;;;;35.00;22.07;;;;;;;;;;5013257;28;20236;-49
2022/12/21 07:18:56;;;;;;;31.60;21.07;;;;;;;;;;5013364;28;20197;-47
2022/12/21 07:21:22;;;;;;;31.80;20.80;;;;;;;;;;5013393;28;20205;-47
2022/12/21 07:23:49;;;;;;;32.47;22.43;;;;;;;;;;5013095;28;20668;-48
2022/12/21 07:26:16;;;;;;;31.63;21.37;;;;;;;;;;5013008;28;20204;-49
2022/12/21 07:28:47;;;;;;;306.33;27.00;;;;;;;;;;5013451;28;20193;-49
2022/12/21 07:31:14;;;;;;;32.53;21.07;;;;;;;;;;5013094;28;20205;-48
2022/12/21 07:33:43;;;;;;;28.93;19.87;;;;;;;;;;5013076;28;20193;-48
2022/12/21 07:36:10;;;;;;;139.53;24.80;;;;;;;;;;5012971;28;20356;-48
2022/12/21 07:38:37;;;;;;;174.37;27.17;;;;;;;;;;5012988;28;20759;-48
2022/12/21 07:41:04;;;;;;;153.70;24.70;;;;;;;;;;5012854;28;20217;-48
2022/12/21 07:43:30;;;;;;;37.43;22.67;;;;;;;;;;5012909;28;20207;-48
2022/12/21 07:45:56;;;;;;;34.30;21.53;;;;;;;;;;5012808;28;20707;-48
2022/12/21 07:48:23;;;;;;;48.50;21.27;;;;;;;;;;5012877;28;20194;-48
2022/12/21 07:50:50;;;;;;;44.17;22.83;;;;;;;;;;5012833;28;20248;-48
2022/12/21 07:53:17;;;;;;;30.23;20.80;;;;;;;;;;5012671;28;20303;-47
2022/12/21 07:55:43;;;;;;;184.13;26.53;;;;;;;;;;5012529;28;20684;-48
2022/12/21 07:58:09;;;;;;;35.03;22.27;;;;;;;;;;5012747;28;20205;-48
2022/12/21 08:00:37;;;;;;;34.13;22.57;;;;;;;;;;5012697;28;20206;-49
2022/12/21 08:03:03;;;;;;;34.20;22.67;;;;;;;;;;5012547;28;20197;-47
2022/12/21 08:05:29;;;;;;;31.27;21.10;;;;;;;;;;5012588;28;20259;-48
2022/12/21 08:07:55;;;;;;;29.00;20.37;;;;;;;;;;5012598;28;20209;-48
2022/12/21 08:10:23;;;;;;;28.07;19.13;;;;;;;;;;5012451;28;20563;-49
2022/12/21 08:12:49;;;;;;;33.20;20.47;;;;;;;;;;5012400;28;20202;-49
2022/12/21 08:15:15;;;;;;;29.03;18.90;;;;;;;;;;5012112;28;20241;-49
2022/12/21 08:17:41;;;;;;;24.87;17.80;;;;;;;;;;5012418;28;20272;-49
2022/12/21 08:20:07;;;;;;;23.23;17.10;;;;;;;;;;5012315;28;20256;-49
2022/12/21 08:22:33;;;;;;;20.90;16.27;;;;;;;;;;5012280;28;20205;-50
2022/12/21 08:24:59;;;;;;;26.07;17.93;;;;;;;;;;5011651;28;20280;-47
2022/12/21 08:27:27;;;;;;;18.90;15.47;;;;;;;;;;5012393;28;20668;-48
2022/12/21 08:29:52;;;;;;;17.13;14.33;;;;;;;;;;5012573;28;20285;-48
2022/12/21 08:32:22;;;;;;;17.57;14.43;;;;;;;;;;5012136;28;20703;-48
2022/12/21 08:34:48;;;;;;;17.10;13.60;;;;;;;;;;5011976;28;20264;-49
2022/12/21 08:37:14;;;;;;;17.53;14.73;;;;;;;;;;5012002;28;20604;-49
2022/12/21 08:39:40;;;;;;;20.10;15.23;;;;;;;;;;5011683;28;20264;-49
2022/12/21 08:42:06;;;;;;;20.27;15.37;;;;;;;;;;5012068;28;20198;-49
2022/12/21 08:44:33;;;;;;;21.23;15.57;;;;;;;;;;5012069;28;20217;-49
2022/12/21 08:46:59;;;;;;;19.33;14.90;;;;;;;;;;5011700;28;20292;-49
2022/12/21 08:49:25;;;;;;;18.43;14.37;;;;;;;;;;5012127;28;20201;-49
2022/12/21 08:51:51;;;;;;;24.90;16.87;;;;;;;;;;5011976;28;20260;-48
2022/12/21 08:54:17;;;;;;;20.10;15.17;;;;;;;;;;5011918;28;20236;-48
2022/12/21 08:56:43;;;;;;;21.70;15.97;;;;;;;;;;5011930;28;20637;-50
2022/12/21 08:59:09;;;;;;;19.30;15.53;;;;;;;;;;5011866;28;20205;-49
2022/12/21 09:01:37;;;;;;;18.47;14.97;;;;;;;;;;5012012;28;20197;-50
2022/12/21 09:04:03;;;;;;;18.20;14.87;;;;;;;;;;5011650;28;20233;-49
2022/12/21 09:06:29;;;;;;;18.87;14.40;;;;;;;;;;5011590;28;20726;-49
2022/12/21 09:08:56;;;;;;;21.30;16.00;;;;;;;;;;5011862;28;20197;-49
2022/12/21 09:11:27;;;;;;;24.90;18.00;;;;;;;;;;5011697;28;20271;-49
2022/12/21 09:13:53;;;;;;;21.57;15.77;;;;;;;;;;5011874;28;20208;-49
2022/12/21 09:16:20;;;;;;;23.37;15.93;;;;;;;;;;5011689;28;20233;-50
2022/12/21 09:18:47;;;;;;;25.33;17.63;;;;;;;;;;5011657;28;20255;-49
2022/12/21 09:21:15;;;;;;;27.20;15.67;;;;;;;;;;5011853;28;20210;-48
2022/12/21 09:23:41;;;;;;;23.57;15.77;;;;;;;;;;5011735;28;20201;-49
2022/12/21 09:26:08;;;;;;;23.50;16.37;;;;;;;;;;5011543;28;20396;-48
2022/12/21 09:28:35;;;;;;;25.47;17.10;;;;;;;;;;5011640;28;20196;-48
2022/12/21 09:31:05;;;;;;;20.83;15.10;;;;;;;;;;5011386;28;20564;-49
2022/12/21 09:33:31;;;;;;;24.03;17.00;;;;;;;;;;5011554;28;20202;-49
2022/12/21 09:35:58;;;;;;;24.50;16.40;;;;;;;;;;5011947;28;20730;-49
2022/12/21 09:38:24;;;;;;;25.87;17.67;;;;;;;;;;5015235;28;20205;-49
2022/12/21 09:40:51;;;;;;;26.13;17.10;;;;;;;;;;5015280;28;20198;-48
2022/12/21 09:43:20;;;;;;;28.10;17.47;;;;;;;;;;5015038;28;20225;-48
2022/12/21 09:45:51;;;;;;;34.67;18.77;;;;;;;;;;5015183;28;20197;-48
2022/12/21 09:48:19;;;;;;;30.33;18.00;;;;;;;;;;5015154;28;20201;-48
2022/12/21 09:50:46;;;;;;;22.00;16.40;;;;;;;;;;5015122;28;20194;-48
2022/12/21 09:53:18;;;;;;;30.33;18.33;;;;;;;;;;5014812;28;20194;-48
2022/12/21 09:55:46;;;;;;;37.37;20.30;;;;;;;;;;5014878;28;20233;-48
2022/12/21 09:58:13;;;;;;;32.20;18.43;;;;;;;;;;5014886;28;20260;-49
2022/12/21 10:00:43;;;;;;;31.87;18.63;;;;;;;;;;5014970;28;20296;-50
2022/12/21 10:03:27;;;;;;;33.00;17.70;;;;;;;;;;5014739;28;20205;-47
2022/12/21 10:06:00;;;;;;;34.83;18.30;;;;;;;;;;5014928;28;20548;-47
2022/12/21 10:08:36;;;;;;;43.40;20.83;;;;;;;;;;5013525;28;20281;-48
2022/12/21 10:11:05;;;;;;;40.83;19.40;;;;;;;;;;5014575;28;20735;-48
2022/12/21 10:13:37;;;;;;;41.27;20.80;;;;;;;;;;5014675;28;20202;-48
2022/12/21 10:16:09;;;;;;;45.37;20.33;;;;;;;;;;5014435;28;20371;-48
2022/12/21 10:18:38;;;;;;;39.87;20.40;;;;;;;;;;5014640;28;20197;-48
2022/12/21 10:21:12;;;;;;;38.10;20.90;;;;;;;;;;5014399;28;20613;-48
2022/12/21 10:23:42;;;;;;;34.53;20.00;;;;;;;;;;5014680;28;20288;-48
2022/12/21 10:26:13;;;;;;;33.40;20.10;;;;;;;;;;5014287;28;20664;-48
2022/12/21 10:28:43;;;;;;;36.70;20.57;;;;;;;;;;5014495;28;20204;-49
2022/12/21 10:31:10;;;;;;;40.93;20.50;;;;;;;;;;5014298;28;20197;-49
2022/12/21 10:33:38;;;;;;;37.73;20.47;;;;;;;;;;5014133;28;20751;-48
2022/12/21 10:36:04;;;;;;;37.27;19.60;;;;;;;;;;5014053;28;20316;-48
2022/12/21 10:38:32;;;;;;;41.80;21.23;;;;;;;;;;5014010;28;20205;-48
2022/12/21 10:41:01;;;;;;;28.57;18.37;;;;;;;;;;5014038;28;20205;-49
2022/12/21 10:43:27;;;;;;;30.47;18.47;;;;;;;;;;5014036;28;20260;-48
2022/12/21 10:45:53;;;;;;;29.70;17.73;;;;;;;;;;5014107;28;20194;-49
2022/12/21 10:48:19;;;;;;;27.43;17.90;;;;;;;;;;5002262;28;20198;-49
2022/12/21 10:50:48;;;;;;;27.30;17.63;;;;;;;;;;4994476;28;20198;-47
2022/12/21 10:53:18;;;;;;;28.33;18.10;;;;;;;;;;4994113;28;20206;-47
2022/12/21 10:55:44;;;;;;;28.67;18.10;;;;;;;;;;4994097;28;20256;-47
2022/12/21 10:58:16;;;;;;;26.10;17.73;;;;;;;;;;4994338;28;20230;-48
2022/12/21 11:00:49;;;;;;;29.30;18.10;;;;;;;;;;4994511;28;20198;-50
2022/12/21 11:03:22;;;;;;;28.97;18.00;;;;;;;;;;4994231;28;20213;-49
2022/12/21 11:05:48;;;;;;;32.23;18.13;;;;;;;;;;4992243;28;20198;-48
2022/12/21 11:08:19;;;;;;;31.97;18.50;;;;;;;;;;4993848;28;20260;-50
2022/12/21 11:10:47;;;;;;;30.00;17.27;;;;;;;;;;4993899;28;20204;-50
2022/12/21 11:13:15;;;;;;;32.77;19.97;;;;;;;;;;4993657;28;20195;-53
2022/12/21 11:15:50;;;;;;;33.83;18.43;;;;;;;;;;4993805;28;20236;-48
2022/12/21 11:18:27;;;;;;;28.17;17.77;;;;;;;;;;4993803;28;20201;-49
2022/12/21 11:20:54;;;;;;;26.77;17.03;;;;;;;;;;4993750;28;20256;-48
2022/12/21 11:23:20;;;;;;;28.93;17.27;;;;;;;;;;4993708;28;20371;-48
2022/12/21 11:25:46;;;;;;;27.70;16.70;;;;;;;;;;4993631;28;20205;-49
2022/12/21 11:28:17;;;;;;;24.70;16.50;;;;;;;;;;4993386;28;20206;-50
2022/12/21 11:30:50;;;;;;;25.70;16.40;;;;;;;;;;4993586;28;20206;-49
2022/12/21 11:33:17;;;;;;;26.70;17.40;;;;;;;;;;4993147;28;20225;-48
2022/12/21 11:36:03;;;;;;;29.63;16.30;;;;;;;;;;4993216;28;20238;-48
2022/12/21 11:38:34;;;;;;;30.27;16.87;;;;;;;;;;4992866;28;20193;-48
2022/12/21 11:41:02;;;;;;;23.17;15.10;;;;;;;;;;4993184;28;20202;-50
2022/12/21 11:43:28;;;;;;;27.03;16.13;;;;;;;;;;4993270;28;20202;-49
2022/12/21 11:46:00;;;;;;;25.73;16.27;;;;;;;;;;4993530;28;20194;-50
2022/12/21 11:48:29;;;;;;;20.37;14.07;;;;;;;;;;4993063;28;20688;-49
2022/12/21 11:50:59;;;;;;;21.00;12.70;;;;;;;;;;4993072;28;20198;-49
2022/12/21 11:53:46;;;;;;;19.70;13.63;;;;;;;;;;4993043;28;20202;-48
2022/12/21 11:56:17;;;;;;;17.87;12.63;;;;;;;;;;4987780;28;20241;-49
2022/12/21 11:58:53;;;;;;;17.50;12.30;;;;;;;;;;4992209;28;20209;-48
2022/12/21 12:01:24;;;;;;;16.00;11.33;;;;;;;;;;4990837;28;20238;-48
2022/12/21 12:03:57;;;;;;;18.47;13.23;;;;;;;;;;4993050;28;20202;-47
2022/12/21 12:06:35;;;;;;;13.40;11.10;;;;;;;;;;4992697;28;20190;-48
2022/12/21 12:09:10;;;;;;;15.00;10.77;;;;;;;;;;4992412;28;20617;-48
2022/12/21 12:11:42;;;;;;;16.17;11.80;;;;;;;;;;4992650;28;20201;-47
2022/12/21 12:14:17;;;;;;;17.23;11.03;;;;;;;;;;4992489;28;20213;-48
2022/12/21 12:16:51;;;;;;;14.33;11.73;;;;;;;;;;4992374;28;20329;-49
2022/12/21 12:19:24;;;;;;;17.23;11.43;;;;;;;;;;4992395;28;20708;-48
2022/12/21 12:21:59;;;;;;;17.53;11.83;;;;;;;;;;4992477;28;20253;-48
2022/12/21 12:24:41;;;;;;;18.43;13.40;;;;;;;;;;4992357;28;20224;-48
2022/12/21 12:27:14;;;;;;;16.50;12.77;;;;;;;;;;4992190;28;20676;-46
2022/12/21 12:29:50;;;;;;;15.30;11.73;;;;;;;;;;4992311;28;20202;-48
2022/12/21 12:32:26;;;;;;;13.47;10.93;;;;;;;;;;4992413;28;20198;-48
2022/12/21 12:35:02;;;;;;;16.43;10.63;;;;;;;;;;4992604;28;20229;-48
2022/12/21 12:37:31;;;;;;;17.93;12.57;;;;;;;;;;4992716;28;20214;-49
2022/12/21 12:40:02;;;;;;;17.90;12.60;;;;;;;;;;4992353;28;20302;-49
2022/12/21 12:42:31;;;;;;;19.37;14.07;;;;;;;;;;4992534;28;20256;-49
2022/12/21 12:45:02;;;;;;;19.43;13.17;;;;;;;;;;4992591;28;20209;-49
2022/12/21 12:47:33;;;;;;;17.17;12.60;;;;;;;;;;4992529;28;20256;-48
2022/12/21 12:50:05;;;;;;;16.57;12.60;;;;;;;;;;4992286;28;20569;-47
2022/12/21 12:52:39;;;;;;;16.53;12.13;;;;;;;;;;4992713;28;20194;-47
2022/12/21 12:55:12;;;;;;;17.83;13.53;;;;;;;;;;4992524;28;20224;-46
2022/12/21 12:57:42;;;;;;;21.30;13.77;;;;;;;;;;4992784;28;20293;-46
2022/12/21 13:00:10;;;;;;;19.83;13.40;;;;;;;;;;4992528;28;20284;-46
2022/12/21 13:02:43;;;;;;;18.70;12.43;;;;;;;;;;4992627;28;20201;-47
2022/12/21 13:05:13;;;;;;;18.37;13.47;;;;;;;;;;4992269;28;20213;-48
2022/12/21 13:07:43;;;;;;;20.10;13.33;;;;;;;;;;4992395;28;20202;-48
2022/12/21 13:10:13;;;;;;;18.77;13.53;;;;;;;;;;4993148;28;20205;-46
2022/12/21 13:12:44;;;;;;;18.57;12.53;;;;;;;;;;4996434;28;20226;-47
2022/12/21 13:15:14;;;;;;;21.00;12.83;;;;;;;;;;5004687;28;20682;-48
2022/12/21 13:17:46;;;;;;;18.53;13.33;;;;;;;;;;5035573;28;20193;-48
2022/12/21 13:20:15;;;;;;;19.77;13.00;;;;;;;;;;5035049;28;20694;-48
2022/12/21 13:22:41;;;;;;;20.60;15.13;;;;;;;;;;5035093;28;20325;-46
2022/12/21 13:25:14;;;;;;;20.97;13.60;;;;;;;;;;5031801;28;20200;-47
2022/12/21 13:27:42;;;;;;;21.07;14.80;;;;;;;;;;5035534;28;20276;-47
2022/12/21 13:30:13;;;;;;;19.07;14.40;;;;;;;;;;5035071;28;20576;-46
2022/12/21 13:32:41;;;;;;;21.30;14.90;;;;;;;;;;5035525;28;20204;-46
2022/12/21 13:35:19;;;;;;;18.80;13.87;;;;;;;;;;5035062;28;20267;-47
2022/12/21 13:37:47;;;;;;;17.10;12.70;;;;;;;;;;5035052;28;20243;-48
2022/12/21 13:40:15;;;;;;;16.23;13.27;;;;;;;;;;5034647;28;20239;-49
2022/12/21 13:42:46;;;;;;;18.43;12.97;;;;;;;;;;5035104;28;20193;-48
2022/12/21 13:45:16;;;;;;;21.57;14.90;;;;;;;;;;5034992;28;20205;-47
2022/12/21 13:47:44;;;;;;;19.27;13.03;;;;;;;;;;5035229;28;20276;-48
2022/12/21 13:50:19;;;;;;;20.67;13.50;;;;;;;;;;5035063;28;20204;-50
2022/12/21 13:52:48;;;;;;;17.40;14.17;;;;;;;;;;5035095;28;20200;-49
2022/12/21 13:55:19;;;;;;;22.53;15.57;;;;;;;;;;5034767;28;20200;-48
2022/12/21 13:57:52;;;;;;;22.03;13.70;;;;;;;;;;5035099;28;20223;-47
2022/12/21 14:00:21;;;;;;;20.57;13.87;;;;;;;;;;5035067;28;20201;-48
2022/12/21 14:02:53;;;;;;;19.13;13.30;;;;;;;;;;5034929;28;20208;-47
2022/12/21 14:05:24;;;;;;;18.20;13.73;;;;;;;;;;5034678;28;20219;-48
2022/12/21 14:08:08;;;;;;;16.53;12.70;;;;;;;;;;5033520;28;20205;-49
2022/12/21 14:10:39;;;;;;;17.30;13.20;;;;;;;;;;5034636;28;20651;-48
2022/12/21 14:13:17;;;;;;;23.10;14.03;;;;;;;;;;5034621;28;20211;-47
2022/12/21 14:15:54;;;;;;;20.10;13.70;;;;;;;;;;5034595;28;20224;-48
2022/12/21 14:18:23;;;;;;;20.27;13.97;;;;;;;;;;5034513;28;20204;-49
2022/12/21 14:20:52;;;;;;;17.27;12.10;;;;;;;;;;5034484;28;20247;-48
2022/12/21 14:23:23;;;;;;;21.87;13.33;;;;;;;;;;5033182;28;20299;-48
2022/12/21 14:25:50;;;;;;;18.50;13.53;;;;;;;;;;5034249;28;20197;-50
2022/12/21 14:28:19;;;;;;;23.83;17.53;;;;;;;;;;5032394;28;20200;-48
2022/12/21 14:30:49;;;;;;;21.13;14.73;;;;;;;;;;5033884;28;20267;-47
2022/12/21 14:33:18;;;;;;;18.90;13.43;;;;;;;;;;5034210;28;20201;-47
2022/12/21 14:35:44;;;;;;;16.23;12.83;;;;;;;;;;5033963;28;20224;-47